createdAt,value
2019-06-25T00:02:35.866Z,10.23
2019-06-25T00:06:44.440Z,9.80
2019-06-25T00:10:52.990Z,8.17
2019-06-25T00:15:01.534Z,11.20
2019-06-25T00:19:10.106Z,8.90
2019-06-25T00:23:18.856Z,10.13
2019-06-25T00:27:27.347Z,8.77
2019-06-25T00:31:35.880Z,9.60
2019-06-25T00:35:44.343Z,9.73
2019-06-25T00:39:52.793Z,9.27
2019-06-25T00:44:01.310Z,9.50
2019-06-25T00:48:09.877Z,9.80
2019-06-25T00:52:18.423Z,8.40
2019-06-25T00:56:26.960Z,9.27
2019-06-25T01:00:35.527Z,8.50
2019-06-25T01:04:44.087Z,9.23
2019-06-25T01:08:52.567Z,9.57
2019-06-25T01:13:01.050Z,9.33
2019-06-25T01:17:09.531Z,9.53
2019-06-25T01:21:18.379Z,9.57
2019-06-25T01:25:26.942Z,9.90
2019-06-25T01:29:35.433Z,9.60
2019-06-25T01:33:43.890Z,8.90
2019-06-25T01:37:52.394Z,9.13
2019-06-25T01:42:01.870Z,10.10
2019-06-25T01:46:10.680Z,9.40
2019-06-25T01:50:19.307Z,9.67
2019-06-25T01:54:27.805Z,9.40
2019-06-25T01:58:36.295Z,10.70
2019-06-25T02:02:44.838Z,9.13
2019-06-25T02:06:53.315Z,9.30
2019-06-25T02:11:01.785Z,9.20
2019-06-25T02:15:10.605Z,11.13
2019-06-25T02:19:19.386Z,8.87
2019-06-25T02:23:27.939Z,12.30
2019-06-25T02:27:36.424Z,9.20
2019-06-25T02:31:45.127Z,11.10
2019-06-25T02:35:53.685Z,9.43
2019-06-25T02:40:02.259Z,9.27
2019-06-25T02:44:10.816Z,9.10
2019-06-25T02:48:19.327Z,9.23
2019-06-25T02:52:27.871Z,9.00
2019-06-25T02:56:36.344Z,9.30
2019-06-25T03:00:44.890Z,9.77
2019-06-25T03:04:53.617Z,8.60
2019-06-25T03:09:02.113Z,9.57
2019-06-25T03:13:10.703Z,10.53
2019-06-25T03:17:19.271Z,8.73
2019-06-25T03:21:27.822Z,9.17
2019-06-25T03:25:36.470Z,9.13
2019-06-25T03:29:45.052Z,8.35
2019-06-25T03:33:53.654Z,8.03
2019-06-25T03:38:02.215Z,9.03
2019-06-25T03:42:10.700Z,10.87
2019-06-25T03:46:19.178Z,9.13
2019-06-25T03:50:27.705Z,8.57
2019-06-25T03:54:36.279Z,8.27
2019-06-25T03:58:44.762Z,8.77
2019-06-25T04:02:53.240Z,9.20
2019-06-25T04:07:01.686Z,8.73
2019-06-25T04:11:10.201Z,9.93
2019-06-25T04:15:18.918Z,8.40
2019-06-25T04:19:27.364Z,14.40
2019-06-25T04:23:35.833Z,8.07
2019-06-25T04:27:44.351Z,8.30
2019-06-25T04:31:52.848Z,8.10
2019-06-25T04:36:01.396Z,7.93
2019-06-25T04:40:10.517Z,8.20
2019-06-25T04:44:19.141Z,14.67
2019-06-25T04:48:27.728Z,9.50
2019-06-25T04:52:36.319Z,7.87
2019-06-25T04:56:45.053Z,10.00
2019-06-25T05:00:53.590Z,7.67
2019-06-25T05:05:02.173Z,9.60
2019-06-25T05:09:10.699Z,8.03
2019-06-25T05:13:19.154Z,8.70
2019-06-25T05:17:28.223Z,8.40
2019-06-25T05:21:36.839Z,12.50
2019-06-25T05:25:45.442Z,9.33
2019-06-25T05:29:53.991Z,8.90
2019-06-25T05:34:02.582Z,15.47
2019-06-25T05:38:11.058Z,7.97
2019-06-25T05:42:19.558Z,11.93
2019-06-25T05:46:28.076Z,7.80
2019-06-25T05:50:36.550Z,8.97
2019-06-25T05:54:45.008Z,8.47
2019-06-25T05:58:53.487Z,9.33
2019-06-25T06:03:01.949Z,12.37
2019-06-25T06:07:10.432Z,10.40
2019-06-25T06:11:18.989Z,14.17
2019-06-25T06:15:27.500Z,10.40
2019-06-25T06:19:36.030Z,7.92
2019-06-25T06:23:44.522Z,8.73
2019-06-25T06:27:52.965Z,6.83
2019-06-25T06:32:01.481Z,6.90
2019-06-25T06:36:10.021Z,6.70
2019-06-25T06:40:18.655Z,7.40
2019-06-25T06:44:27.102Z,8.80
2019-06-25T06:48:36.045Z,11.23
2019-06-25T06:52:44.595Z,6.57
2019-06-25T06:56:53.139Z,8.60
2019-06-25T07:01:02.108Z,6.53
2019-06-25T07:05:10.859Z,8.00
2019-06-25T07:09:19.451Z,7.50
2019-06-25T07:13:28.098Z,11.07
2019-06-25T07:17:36.842Z,7.80
2019-06-25T07:21:45.341Z,6.00
2019-06-25T07:25:53.999Z,6.83
2019-06-25T07:30:03.167Z,6.80
2019-06-25T07:34:11.698Z,8.27
2019-06-25T07:38:20.220Z,7.87
2019-06-25T07:42:28.684Z,9.00
2019-06-25T07:46:37.269Z,7.43
2019-06-25T07:50:45.899Z,7.43
2019-06-25T07:54:54.346Z,6.57
2019-06-25T07:59:02.894Z,7.73
2019-06-25T08:03:11.443Z,6.67
2019-06-25T08:07:19.995Z,8.40
2019-06-25T08:11:28.558Z,7.70
2019-06-25T08:15:37.113Z,7.67
2019-06-25T08:19:45.836Z,7.03
2019-06-25T08:23:54.330Z,10.53
2019-06-25T08:28:02.871Z,7.47
2019-06-25T08:32:11.467Z,11.50
2019-06-25T08:36:20.014Z,7.63
2019-06-25T08:40:28.619Z,8.20
2019-06-25T08:44:37.317Z,9.20
2019-06-25T08:48:48.749Z,9.17
2019-06-25T08:52:58.700Z,8.03
2019-06-25T08:57:06.373Z,7.63
2019-06-25T09:01:15.791Z,8.73
2019-06-25T09:05:24.366Z,6.43
2019-06-25T09:09:32.827Z,7.10
2019-06-25T09:13:41.308Z,6.97
2019-06-25T09:17:51.781Z,7.13
2019-06-25T09:22:00.107Z,7.10
2019-06-25T09:26:08.669Z,10.23
2019-06-25T09:30:17.578Z,6.37
2019-06-25T09:34:26.240Z,6.93
2019-06-25T09:38:34.841Z,6.70
2019-06-25T09:42:42.285Z,9.03
2019-06-25T09:46:51.495Z,8.13
2019-06-25T09:51:00.715Z,7.30
2019-06-25T09:55:10.625Z,7.30
2019-06-25T09:59:19.198Z,9.40
2019-06-25T10:03:28.010Z,14.53
2019-06-25T10:07:36.561Z,8.23
2019-06-25T10:11:45.052Z,6.70
2019-06-25T10:15:53.577Z,7.27
2019-06-25T10:20:02.069Z,6.37
2019-06-25T10:24:11.524Z,7.10
2019-06-25T10:28:29.548Z,6.90
2019-06-25T10:32:30.316Z,11.60
2019-06-25T10:36:38.808Z,7.53
2019-06-25T10:40:47.414Z,7.10
2019-06-25T10:44:55.870Z,9.80
2019-06-25T10:49:04.357Z,6.83
2019-06-25T10:53:12.809Z,6.70
2019-06-25T10:57:21.358Z,6.70
2019-06-25T11:01:29.936Z,8.37
2019-06-25T11:05:39.256Z,10.53
2019-06-25T11:09:47.850Z,7.83
2019-06-25T11:14:07.767Z,10.40
2019-06-25T11:18:09.579Z,8.90
2019-06-25T11:22:16.998Z,7.43
2019-06-25T11:26:25.597Z,12.67
2019-06-25T11:30:34.128Z,17.40
2019-06-25T11:34:42.683Z,7.10
2019-06-25T11:38:51.399Z,8.40
2019-06-25T11:42:59.980Z,7.37
2019-06-25T11:47:08.465Z,8.13
2019-06-25T11:51:16.977Z,7.50
2019-06-25T11:55:25.550Z,7.80
2019-06-25T11:59:34.085Z,7.10
2019-06-25T12:03:42.591Z,6.97
2019-06-25T12:07:51.132Z,7.40
2019-06-25T12:11:59.716Z,7.90
2019-06-25T12:16:08.205Z,8.37
2019-06-25T12:20:16.920Z,8.17
2019-06-25T12:24:26.907Z,6.83
2019-06-25T12:28:35.427Z,7.70
2019-06-25T12:32:43.998Z,7.23
2019-06-25T12:37:08.336Z,7.70
2019-06-25T12:41:02.764Z,7.03
2019-06-25T12:45:11.799Z,7.40
2019-06-25T12:49:20.363Z,6.63
2019-06-25T12:53:28.950Z,6.90
2019-06-25T12:57:37.478Z,6.43
2019-06-25T13:01:45.958Z,6.90
2019-06-25T13:05:54.434Z,6.87
2019-06-25T13:10:04.098Z,8.07
2019-06-25T13:14:12.699Z,7.93
2019-06-25T13:18:21.402Z,7.00
2019-06-25T13:22:29.920Z,9.30
2019-06-25T13:26:38.460Z,9.13
2019-06-25T13:30:46.949Z,7.20
2019-06-25T13:34:55.548Z,7.20
2019-06-25T13:39:06.062Z,9.20
2019-06-25T13:43:14.636Z,7.23
2019-06-25T13:47:23.124Z,8.10
2019-06-25T13:51:31.618Z,6.97
2019-06-25T13:55:40.183Z,7.97
2019-06-25T13:59:48.718Z,7.40
2019-06-25T14:03:57.255Z,10.33
2019-06-25T14:08:05.886Z,7.47
2019-06-25T14:12:14.431Z,6.93
2019-06-25T14:16:22.926Z,7.83
2019-06-25T14:20:31.449Z,7.37
2019-06-25T14:24:39.935Z,7.40
2019-06-25T14:28:48.486Z,7.27
2019-06-25T14:32:59.809Z,7.70
2019-06-25T14:37:07.163Z,6.73
2019-06-25T14:41:15.760Z,6.87
2019-06-25T14:45:24.334Z,7.27
2019-06-25T14:49:32.893Z,7.17
2019-06-25T14:53:41.407Z,8.37
2019-06-25T14:57:50.309Z,7.17
2019-06-25T15:01:58.932Z,6.83
2019-06-25T15:06:07.461Z,6.37
2019-06-25T15:10:16.182Z,7.07
2019-06-25T15:14:24.981Z,7.20
2019-06-25T15:18:33.475Z,6.90
2019-06-25T15:22:42.015Z,8.30
2019-06-25T15:26:50.527Z,6.97
2019-06-25T15:30:59.357Z,7.37
2019-06-25T15:35:09.355Z,7.37
2019-06-25T15:39:17.807Z,7.10
2019-06-25T15:43:29.909Z,7.10
2019-06-25T15:47:36.473Z,8.30
2019-06-25T15:51:44.991Z,7.20
2019-06-25T15:55:53.725Z,8.30
2019-06-25T16:00:02.452Z,6.90
2019-06-25T16:04:10.988Z,9.47
2019-06-25T16:08:19.547Z,7.00
2019-06-25T16:12:28.100Z,6.93
2019-06-25T16:16:36.561Z,7.00
2019-06-25T16:20:45.103Z,6.53
2019-06-25T16:24:53.646Z,7.43
2019-06-25T16:29:02.140Z,6.90
2019-06-25T16:33:10.589Z,7.13
2019-06-25T16:37:20.041Z,7.17
2019-06-25T16:41:28.692Z,6.53
2019-06-25T16:45:37.258Z,7.27
2019-06-25T16:49:45.805Z,6.63
2019-06-25T16:53:54.278Z,7.33
2019-06-25T16:58:02.767Z,7.73
2019-06-25T17:02:11.239Z,7.93
2019-06-25T17:06:19.724Z,10.00
2019-06-25T17:10:28.183Z,7.00
2019-06-25T17:14:36.663Z,10.57
2019-06-25T17:18:45.105Z,7.83
2019-06-25T17:23:07.185Z,9.30
2019-06-25T17:27:03.795Z,7.40
2019-06-25T17:31:12.349Z,8.20
2019-06-25T17:35:20.833Z,7.47
2019-06-25T17:39:29.381Z,8.83
2019-06-25T17:43:46.650Z,8.30
2019-06-25T17:47:48.105Z,9.90
2019-06-25T17:51:56.668Z,8.00
2019-06-25T17:56:05.309Z,7.97
2019-06-25T18:00:15.480Z,9.57
2019-06-25T18:04:23.955Z,8.63
2019-06-25T18:08:32.429Z,10.20
2019-06-25T18:12:40.918Z,8.50
2019-06-25T18:16:49.483Z,10.03
2019-06-25T18:20:58.220Z,9.50
2019-06-25T18:25:07.724Z,8.20
2019-06-25T18:29:16.251Z,8.40
2019-06-25T18:33:24.786Z,8.00
2019-06-25T18:37:33.264Z,14.63
2019-06-25T18:41:41.753Z,8.53
2019-06-25T18:45:50.329Z,11.63
2019-06-25T18:49:58.877Z,8.73
2019-06-25T18:54:07.368Z,9.20
2019-06-25T18:58:16.174Z,8.57
2019-06-25T19:02:24.798Z,11.20
2019-06-25T19:06:33.284Z,11.00
2019-06-25T19:10:41.771Z,10.10
2019-06-25T19:14:50.220Z,9.43
2019-06-25T19:18:58.850Z,9.23
2019-06-25T19:23:07.401Z,9.07
2019-06-25T19:27:15.892Z,8.30
2019-06-25T19:31:24.445Z,10.80
2019-06-25T19:35:32.997Z,9.53
2019-06-25T19:39:41.472Z,12.23
2019-06-25T19:43:50.332Z,10.67
2019-06-25T19:47:58.867Z,14.60
2019-06-25T19:52:07.359Z,10.10
2019-06-25T19:56:18.786Z,8.40
2019-06-25T20:00:27.658Z,8.70
2019-06-25T20:04:36.144Z,9.90
2019-06-25T20:08:44.734Z,13.07
2019-06-25T20:12:53.208Z,8.63
2019-06-25T20:17:01.757Z,11.83
2019-06-25T20:21:10.368Z,10.50
2019-06-25T20:25:19.117Z,10.43
2019-06-25T20:29:27.670Z,12.07
2019-06-25T20:33:36.124Z,15.53
2019-06-25T20:37:44.620Z,9.33
2019-06-25T20:41:53.089Z,8.63
2019-06-25T20:46:01.607Z,9.13
2019-06-25T20:50:10.405Z,8.37
2019-06-25T20:54:18.990Z,8.87
2019-06-25T20:58:27.572Z,10.57
2019-06-25T21:02:36.138Z,10.57
2019-06-25T21:06:44.666Z,10.00
2019-06-25T21:10:53.262Z,12.77
2019-06-25T21:15:01.793Z,12.70
2019-06-25T21:19:10.458Z,9.83
2019-06-25T21:23:19.082Z,8.70
2019-06-25T21:27:27.638Z,8.60
2019-06-25T21:31:36.098Z,12.50
2019-06-25T21:35:44.695Z,12.20
2019-06-25T21:39:53.269Z,11.60
2019-06-25T21:44:01.791Z,10.93
2019-06-25T21:48:10.354Z,9.47
2019-06-25T21:52:18.868Z,14.20
2019-06-25T21:56:27.360Z,10.37
2019-06-25T22:00:37.694Z,10.57
2019-06-25T22:04:46.188Z,10.97
2019-06-25T22:08:54.755Z,12.83
2019-06-25T22:13:03.464Z,11.50
2019-06-25T22:17:12.158Z,12.73
2019-06-25T22:21:21.505Z,14.53
2019-06-25T22:25:30.028Z,15.57
2019-06-25T22:29:38.527Z,14.33
2019-06-25T22:33:47.148Z,21.60
2019-06-25T22:37:55.728Z,18.30
2019-06-25T22:42:04.306Z,19.77
2019-06-25T22:46:12.763Z,18.63
2019-06-25T22:50:21.623Z,19.23
2019-06-25T22:54:30.160Z,20.63
2019-06-25T22:58:38.705Z,21.80
2019-06-25T23:02:47.349Z,22.97
2019-06-25T23:06:55.897Z,23.53
2019-06-25T23:11:04.416Z,25.37
2019-06-25T23:15:13.941Z,26.50
2019-06-25T23:19:22.488Z,25.33
2019-06-25T23:23:31.049Z,25.03
2019-06-25T23:27:39.569Z,26.40
2019-06-25T23:31:48.063Z,31.90
2019-06-25T23:35:56.646Z,29.37
2019-06-25T23:40:08.675Z,30.13
2019-06-25T23:44:17.268Z,32.17
2019-06-25T23:48:25.874Z,35.00
2019-06-25T23:52:34.412Z,32.20
2019-06-25T23:56:42.891Z,30.90
